Nearby METAR Reports

 

KBJC - Broomfield/Jeffc, Colorado, USA
Distance from station: SSW 3mi, 5km
Updated: Thu, 21-Jun-2018 3:45pm MDT
Mostly cloudy
Mostly cloudy
 Wind from N
Wind: N 5 mph , 7 km/h
Temperature: 81°F , 27°C
Dew Point: 46°F , 8°C
Humidity: 30%
Barometer: 30.13 inHg , 1020.3 hPa
Clouds: Mostly cloudy
Visibility: 20 miles , 32 km
Cloud details: Partly cloudy 8000 ft
Mostly cloudy 12000 ft
2018/06/21 21:45 KBJC 212145Z 36004KT 20SM SCT080 BKN120 27/08 A3013
KEIK - Erie Muni, Colorado, USA
Distance from station: N 5mi, 9km
Updated: Thu, 21-Jun-2018 3:54pm MDT
Clear
Clear
 Wind from NNE
Wind: NNE 10 mph , 17 km/h
Temperature: 81°F , 27°C
Dew Point: 45°F , 7°C
Humidity: 28%
Barometer: 30.13 inHg , 1020.3 hPa
Clouds: Clear
Visibility: 10 miles , 16 km
2018/06/21 21:54 KEIK 212154Z AUTO 02009KT 10SM CLR 27/07 A3013 RMK AO2 T02700068
 
KBDU - Boulder Muni, Colorado, USA
Distance from station: NW 11mi, 17km
Updated: Thu, 21-Jun-2018 3:54pm MDT
Partly cloudy
Partly cloudy
 Wind from N
Wind: N 9 mph , 15 km/h
Temperature: 79°F , 26°C
Dew Point: 50°F , 10°C
Humidity: 37%
Barometer: 30.10 inHg , 1019.3 hPa
Clouds: Partly cloudy
Visibility: 10 miles , 16 km
Cloud details: Partly cloudy 11000 ft
2018/06/21 21:54 KBDU 212154Z AUTO 35008KT 10SM SCT110 26/10 A3010 RMK AO2
KLMO - Longmont/Vbrand, Colorado, USA
Distance from station: NNW 16mi, 27km
Updated: Thu, 21-Jun-2018 3:35pm MDT
Clear
Clear
 Wind from calm
Wind: Calm
Temperature: 81°F , 27°C
Dew Point: 50°F , 10°C
Humidity: 34%
Barometer: 30.11 inHg , 1019.6 hPa
Clouds: Clear
Visibility: 10 miles , 16 km
2018/06/21 21:35 KLMO 212135Z AUTO 00000KT 10SM CLR 27/10 A3011 RMK AO2 T02680100
 
KBKF - Buckley Angb/Den, Colorado, USA
Distance from station: SE 23mi, 37km
Updated: Thu, 21-Jun-2018 2:58pm MDT
Few Clouds
Few Clouds
 Wind from NNE
Wind: NNE 7 mph , 11 km/h
Temperature: 84°F , 29°C
Dew Point: 45°F , 7°C
Humidity: 25%
Barometer: 30.11 inHg , 1019.6 hPa
Clouds: Few Clouds
Visibility: 10 miles , 16 km
Cloud details: Few Clouds 9000 ft
2018/06/21 20:58 KBKF 212058Z 03006KT 10SM FEW090 29/07 A3011 RMK AO2A SLP122 T02880068 57019
KDEN - Denver (dia), Colorado, USA
Distance from station: ESE 23mi, 37km
Updated: Thu, 21-Jun-2018 3:53pm MDT
Few Clouds
Few Clouds
 Wind from NE
Wind: NE 18 mph , 30 km/h, Gust: 26 mph , 43 km/h
Temperature: 84°F , 29°C
Dew Point: 45°F , 7°C
Humidity: 25%
Barometer: 30.07 inHg , 1018.3 hPa
Clouds: Few Clouds
Visibility: 10 miles , 16 km
Cloud details: Few Clouds 12000 ft
Few Clouds 22000 ft
2018/06/21 21:53 KDEN 212153Z 05016G23KT 10SM FEW120 FEW220 29/07 A3007 RMK AO2 SLP111 TCU DSNT W-N T02940072
 
KAPA - Denver/Arapahoe, Colorado, USA
Distance from station: SSE 28mi, 46km
Updated: Thu, 21-Jun-2018 3:53pm MDT
Partly cloudy
Partly cloudy
 Wind from varies
Wind: varies 5 mph , 7 km/h
Temperature: 82°F , 28°C
Dew Point: 45°F , 7°C
Humidity: 26%
Barometer: 30.10 inHg , 1019.3 hPa
Clouds: Partly cloudy
Visibility: 10 miles , 16 km
Cloud details: Partly cloudy 7000 ft
Partly cloudy 12000 ft
2018/06/21 21:53 KAPA 212153Z VRB04KT 10SM SCT070 SCT120 28/07 A3010 RMK AO2 SLP128 T02780067
KFTG - Denver F. Range, Colorado, USA
Distance from station: ESE 30mi, 48km
Updated: Thu, 21-Jun-2018 3:47pm MDT
Mostly cloudy
Mostly cloudy
 Wind from NNE
Wind: NNE 10 mph , 17 km/h, Gust: 20 mph , 31 km/h
Temperature: 88°F , 31°C
Dew Point: 39°F , 4°C
Humidity: 18%
Barometer: 30.10 inHg , 1019.3 hPa
Clouds: Mostly cloudy
Visibility: 10 miles , 16 km
Cloud details: Mostly cloudy 12000 ft
2018/06/21 21:47 KFTG 212147Z 02009G17KT 10SM BKN120 31/04 A3010
 
KFNL - Ft Collins/Lovel, Colorado, USA
Distance from station: N 35mi, 57km
Updated: Thu, 21-Jun-2018 3:56pm MDT
Mostly cloudy
Mostly cloudy
 Wind from E
Wind: E 9 mph , 15 km/h
Temperature: 75°F , 24°C
Dew Point: 54°F , 12°C
Humidity: 47%
Barometer: 30.09 inHg , 1019 hPa
Clouds: Mostly cloudy
Visibility: 10 miles , 16 km
Cloud details: Mostly cloudy 11000 ft
2018/06/21 21:56 KFNL 212156Z AUTO 09008KT 10SM BKN110 24/12 A3009 RMK AO2 SLP140 T02440117
K0CO - Berthoud Pass, Colorado, USA
Distance from station: WSW 38mi, 61km
Updated: Thu, 21-Jun-2018 3:53pm MDT
Overcast
Overcast
 Wind from NW
Wind: NW 13 mph , 20 km/h, Gust: 25 mph , 41 km/h
Temperature: 50°F , 10°C
Wind Chill: 45°F , 7°C
Dew Point: 34°F , 1°C
Humidity: 54%
Barometer: 30.63 inHg , 1037.3 hPa
Clouds: Overcast
Visibility: 10 miles , 16 km
Cloud details: Partly cloudy 4300 ft
Mostly cloudy 5000 ft
Overcast 7000 ft
2018/06/21 21:53 K0CO 212153Z AUTO 31011G22KT 10SM SCT043 BKN050 OVC070 10/01 A3063 RMK AO2
 
KGXY - Greeley/Weld, Colorado, USA
Distance from station: NE 41mi, 66km
Updated: Thu, 21-Jun-2018 3:56pm MDT
Clear
Clear
 Wind from S
Wind: S 7 mph , 11 km/h
Temperature: 79°F , 26°C
Dew Point: 54°F , 12°C
Humidity: 42%
Barometer: 30.08 inHg , 1018.6 hPa
Clouds: Clear
Visibility: 10 miles , 16 km
2018/06/21 21:56 KGXY 212156Z AUTO 17006KT 10SM CLR 26/12 A3008 RMK AO2 SLP155 T02610117